createdAt,value
2023-03-03T00:01:44.009Z,6.57
2023-03-03T00:04:11.857Z,7.90
2023-03-03T00:06:39.533Z,7.00
2023-03-03T00:09:07.228Z,5.37
2023-03-03T00:11:34.849Z,7.80
2023-03-03T00:14:02.513Z,5.97
2023-03-03T00:16:35.718Z,5.90
2023-03-03T00:19:03.811Z,6.93
2023-03-03T00:21:42.811Z,5.87
2023-03-03T00:24:36.792Z,6.90
2023-03-03T00:27:37.042Z,6.57
2023-03-03T00:30:20.185Z,7.23
2023-03-03T00:32:50.262Z,7.53
2023-03-03T00:35:30.164Z,6.90
2023-03-03T00:38:00.448Z,6.40
2023-03-03T00:40:39.814Z,9.03
2023-03-03T00:43:19.551Z,6.63
2023-03-03T00:45:51.679Z,6.50
2023-03-03T00:48:36.021Z,7.73
2023-03-03T00:51:30.962Z,8.23
2023-03-03T00:53:59.555Z,6.00
2023-03-03T00:56:27.861Z,7.80
2023-03-03T00:58:55.524Z,6.83
2023-03-03T01:01:25.572Z,6.23
2023-03-03T01:03:53.358Z,6.80
2023-03-03T01:06:21.183Z,7.87
2023-03-03T01:08:48.849Z,7.20
2023-03-03T01:11:23.006Z,8.37
2023-03-03T01:13:52.471Z,7.53
2023-03-03T01:16:21.372Z,7.27
2023-03-03T01:18:49.195Z,7.00
2023-03-03T01:21:16.990Z,6.53
2023-03-03T01:23:44.735Z,7.10
2023-03-03T01:26:12.360Z,8.43
2023-03-03T01:28:39.974Z,6.27
2023-03-03T01:31:07.944Z,6.40
2023-03-03T01:33:36.581Z,7.80
2023-03-03T01:36:04.913Z,7.23
2023-03-03T01:38:35.265Z,8.80
2023-03-03T01:41:03.369Z,7.73
2023-03-03T01:43:32.289Z,6.87
2023-03-03T01:45:59.838Z,7.80
2023-03-03T01:48:32.985Z,7.03
2023-03-03T01:51:16.451Z,7.43
2023-03-03T01:53:47.942Z,7.40
2023-03-03T01:56:15.783Z,9.10
2023-03-03T01:58:51.173Z,7.50
2023-03-03T02:01:27.471Z,8.37
2023-03-03T02:03:55.372Z,8.90
2023-03-03T02:06:30.987Z,6.90
2023-03-03T02:09:29.639Z,8.13
2023-03-03T02:12:01.220Z,8.43
2023-03-03T02:14:28.864Z,7.67
2023-03-03T02:16:56.651Z,7.40
2023-03-03T02:19:52.744Z,7.30
2023-03-03T02:22:31.314Z,8.27
2023-03-03T02:25:02.400Z,7.57
2023-03-03T02:27:32.870Z,8.07
2023-03-03T02:30:10.862Z,8.37
2023-03-03T02:32:38.546Z,7.40
2023-03-03T02:35:31.231Z,7.27
2023-03-03T02:38:07.746Z,8.73
2023-03-03T02:40:39.842Z,8.33
2023-03-03T02:43:09.288Z,8.37
2023-03-03T02:45:43.556Z,8.73
2023-03-03T02:48:11.710Z,8.33
2023-03-03T02:50:39.328Z,8.50
2023-03-03T02:53:07.037Z,8.73
2023-03-03T02:55:34.699Z,8.27
2023-03-03T02:58:02.394Z,10.67
2023-03-03T03:00:30.066Z,8.60
2023-03-03T03:02:57.829Z,8.60
2023-03-03T03:05:25.572Z,8.30
2023-03-03T03:07:53.428Z,9.03
2023-03-03T03:10:21.150Z,9.13
2023-03-03T03:12:49.969Z,9.20
2023-03-03T03:15:17.628Z,9.17
2023-03-03T03:17:45.295Z,9.17
2023-03-03T03:20:13.360Z,9.33
2023-03-03T03:22:41.011Z,9.23
2023-03-03T03:25:08.910Z,9.97
2023-03-03T03:27:36.523Z,10.47
2023-03-03T03:30:04.557Z,9.60
2023-03-03T03:32:32.249Z,11.20
2023-03-03T03:34:59.891Z,9.97
2023-03-03T03:37:27.636Z,9.90
2023-03-03T03:39:56.326Z,10.97
2023-03-03T03:42:23.956Z,10.43
2023-03-03T03:44:51.670Z,10.67
2023-03-03T03:47:19.291Z,11.13
2023-03-03T03:49:46.943Z,10.67
2023-03-03T03:52:14.651Z,10.90
2023-03-03T03:54:42.680Z,11.30
2023-03-03T03:57:10.303Z,10.83
2023-03-03T03:59:38.833Z,12.03
2023-03-03T04:02:06.777Z,11.80
2023-03-03T04:04:34.585Z,12.40
2023-03-03T04:07:02.207Z,12.90
2023-03-03T04:09:29.977Z,11.63
2023-03-03T04:11:57.651Z,12.00
2023-03-03T04:14:25.283Z,11.97
2023-03-03T04:16:53.048Z,11.47
2023-03-03T04:19:20.707Z,12.90
2023-03-03T04:21:48.400Z,13.80
2023-03-03T04:24:16.377Z,12.60
2023-03-03T04:26:44.066Z,14.17
2023-03-03T04:29:11.729Z,14.33
2023-03-03T04:31:39.363Z,13.97
2023-03-03T04:34:07.028Z,14.63
2023-03-03T04:36:34.581Z,14.87
2023-03-03T04:39:02.222Z,14.37
2023-03-03T04:41:29.863Z,13.47
2023-03-03T04:43:57.726Z,15.10
2023-03-03T04:46:26.698Z,15.80
2023-03-03T04:48:55.399Z,16.70
2023-03-03T04:51:23.605Z,16.80
2023-03-03T04:53:51.343Z,15.50
2023-03-03T04:56:18.988Z,15.20
2023-03-03T04:58:46.653Z,14.50
2023-03-03T05:01:14.823Z,15.07
2023-03-03T05:03:42.730Z,14.40
2023-03-03T05:06:10.365Z,16.17
2023-03-03T05:08:38.262Z,17.63
2023-03-03T05:11:05.945Z,17.30
2023-03-03T05:13:33.612Z,20.00
2023-03-03T05:16:01.386Z,19.07
2023-03-03T05:18:29.577Z,17.40
2023-03-03T05:20:57.320Z,18.53
2023-03-03T05:23:25.187Z,17.37
2023-03-03T05:25:52.868Z,18.47
2023-03-03T05:28:20.535Z,19.23
2023-03-03T05:30:48.191Z,17.83
2023-03-03T05:33:17.907Z,19.20
2023-03-03T05:35:48.292Z,20.27
2023-03-03T05:38:15.928Z,16.87
2023-03-03T05:40:44.204Z,19.20
2023-03-03T05:43:11.894Z,18.93
2023-03-03T05:45:39.661Z,17.60
2023-03-03T05:48:07.596Z,16.93
2023-03-03T05:50:36.141Z,20.53
2023-03-03T05:53:04.408Z,20.17
2023-03-03T05:55:32.276Z,19.73
2023-03-03T05:58:00.551Z,18.23
2023-03-03T06:00:28.226Z,20.77
2023-03-03T06:02:56.129Z,19.63
2023-03-03T06:05:23.850Z,21.17
2023-03-03T06:07:51.577Z,19.20
2023-03-03T06:10:19.342Z,21.33
2023-03-03T06:12:46.981Z,21.17
2023-03-03T06:15:14.802Z,21.97
2023-03-03T06:17:42.455Z,25.13
2023-03-03T06:20:12.186Z,23.33
2023-03-03T06:22:40.158Z,21.97
2023-03-03T06:25:08.179Z,20.70
2023-03-03T06:27:35.813Z,21.57
2023-03-03T06:30:05.293Z,21.37
2023-03-03T06:32:32.965Z,22.30
2023-03-03T06:35:00.608Z,23.93
2023-03-03T06:37:28.288Z,23.90
2023-03-03T06:39:56.145Z,26.50
2023-03-03T06:42:24.933Z,24.80
2023-03-03T06:44:52.587Z,27.50
2023-03-03T06:47:20.277Z,24.03
2023-03-03T06:49:48.090Z,22.53
2023-03-03T06:52:22.907Z,23.30
2023-03-03T06:54:55.321Z,25.57
2023-03-03T06:57:34.285Z,22.13
2023-03-03T07:00:23.158Z,21.50
2023-03-03T07:03:06.064Z,23.63
2023-03-03T07:05:34.561Z,23.20
2023-03-03T07:08:02.378Z,25.10
2023-03-03T07:10:31.027Z,22.60
2023-03-03T07:13:20.561Z,22.03
2023-03-03T07:15:49.990Z,21.70
2023-03-03T07:18:45.624Z,25.23
2023-03-03T07:21:23.086Z,31.07
2023-03-03T07:23:52.950Z,24.83
2023-03-03T07:26:23.130Z,24.70
2023-03-03T07:29:18.063Z,23.60
2023-03-03T07:31:50.208Z,24.40
2023-03-03T07:34:22.223Z,24.20
2023-03-03T07:37:05.136Z,25.93
2023-03-03T07:39:40.397Z,25.33
2023-03-03T07:42:11.017Z,23.73
2023-03-03T07:44:39.534Z,25.97
2023-03-03T07:47:20.491Z,26.77
2023-03-03T07:49:50.342Z,29.23
2023-03-03T07:52:41.407Z,27.73
2023-03-03T07:55:31.089Z,29.17
2023-03-03T07:58:10.603Z,26.07
2023-03-03T08:00:56.759Z,28.67
2023-03-03T08:03:24.525Z,27.33
2023-03-03T08:05:52.632Z,27.73
2023-03-03T08:08:37.033Z,28.10
2023-03-03T08:11:05.875Z,27.07
2023-03-03T08:13:38.057Z,32.13
2023-03-03T08:16:11.875Z,32.10
2023-03-03T08:18:46.357Z,31.33
2023-03-03T08:21:22.514Z,28.30
2023-03-03T08:23:51.672Z,30.80
2023-03-03T08:26:23.980Z,35.00
2023-03-03T08:28:52.458Z,28.50
2023-03-03T08:31:38.386Z,34.43
2023-03-03T08:34:08.245Z,35.00
2023-03-03T08:36:35.939Z,35.67
2023-03-03T08:39:05.188Z,36.67
2023-03-03T08:41:32.785Z,38.60
2023-03-03T08:44:00.373Z,46.63
2023-03-03T08:46:28.654Z,38.13
2023-03-03T08:48:56.317Z,42.00
2023-03-03T08:51:25.213Z,49.03
2023-03-03T08:53:52.979Z,39.93
2023-03-03T08:56:20.632Z,39.33
2023-03-03T08:59:03.826Z,40.43
2023-03-03T09:01:32.500Z,47.87
2023-03-03T09:04:00.653Z,39.03
2023-03-03T09:06:28.295Z,58.03
2023-03-03T09:08:55.903Z,41.37
2023-03-03T09:11:28.560Z,46.53
2023-03-03T09:14:17.586Z,40.53
2023-03-03T09:16:50.830Z,44.73
2023-03-03T09:19:29.477Z,44.93
2023-03-03T09:22:03.385Z,43.80
2023-03-03T09:24:35.809Z,41.40
2023-03-03T09:27:17.672Z,42.10
2023-03-03T09:29:45.345Z,42.50
2023-03-03T09:32:39.161Z,45.33
2023-03-03T09:35:28.626Z,41.43
2023-03-03T09:37:56.191Z,44.87
2023-03-03T09:40:29.524Z,38.37
2023-03-03T09:43:08.744Z,36.43
2023-03-03T09:45:42.247Z,39.53
2023-03-03T09:48:30.509Z,42.07
2023-03-03T09:51:34.996Z,41.20
2023-03-03T09:54:24.926Z,43.07
2023-03-03T09:57:14.302Z,44.30
2023-03-03T10:00:00.208Z,38.93
2023-03-03T10:02:47.674Z,41.60
2023-03-03T10:05:34.252Z,37.23
2023-03-03T10:08:14.136Z,41.73
2023-03-03T10:11:05.851Z,39.30
2023-03-03T10:13:43.064Z,38.83
2023-03-03T10:16:49.077Z,39.67
2023-03-03T10:19:34.198Z,41.37
2023-03-03T10:22:11.382Z,37.27
2023-03-03T10:24:54.335Z,38.83
2023-03-03T10:27:39.542Z,39.20
2023-03-03T10:30:39.821Z,40.03
2023-03-03T10:33:33.022Z,36.23
2023-03-03T10:36:25.128Z,39.60
2023-03-03T10:39:14.398Z,38.83
2023-03-03T10:42:06.497Z,41.03
2023-03-03T10:44:52.196Z,37.10
2023-03-03T10:47:37.058Z,40.57
2023-03-03T10:50:20.805Z,35.90
2023-03-03T10:53:06.664Z,44.93
2023-03-03T10:55:41.568Z,39.13
2023-03-03T10:58:21.533Z,34.93
2023-03-03T11:00:58.444Z,38.80
2023-03-03T11:03:53.013Z,37.47
2023-03-03T11:06:35.665Z,36.87
2023-03-03T11:09:21.420Z,34.77
2023-03-03T11:12:09.172Z,33.47
2023-03-03T11:15:03.328Z,30.33
2023-03-03T11:17:51.882Z,33.53
2023-03-03T11:20:25.201Z,32.00
2023-03-03T11:22:58.811Z,32.40
2023-03-03T11:25:32.325Z,28.60
2023-03-03T11:28:09.577Z,30.20
2023-03-03T11:30:58.302Z,26.90
2023-03-03T11:33:34.602Z,28.47
2023-03-03T11:36:23.334Z,24.53
2023-03-03T11:38:53.898Z,24.97
2023-03-03T11:41:34.867Z,27.27
2023-03-03T11:44:18.546Z,29.67
2023-03-03T11:46:55.262Z,25.07
2023-03-03T11:49:43.378Z,23.93
2023-03-03T11:52:29.384Z,23.97
2023-03-03T11:55:04.127Z,25.00
2023-03-03T11:58:06.263Z,24.77
2023-03-03T12:01:06.426Z,27.13
2023-03-03T12:03:55.761Z,26.80
2023-03-03T12:06:48.114Z,27.10
2023-03-03T12:09:21.440Z,22.53
2023-03-03T12:12:07.352Z,24.07
2023-03-03T12:14:43.918Z,21.80
2023-03-03T12:17:31.787Z,27.67
2023-03-03T12:20:20.357Z,21.70
2023-03-03T12:23:06.520Z,24.43
2023-03-03T12:25:42.204Z,27.83
2023-03-03T12:28:09.763Z,24.13
2023-03-03T12:30:59.310Z,20.83
2023-03-03T12:33:50.919Z,20.50
2023-03-03T12:36:40.494Z,21.30
2023-03-03T12:39:35.310Z,22.63
2023-03-03T12:42:17.200Z,21.95
2023-03-03T12:44:54.078Z,21.77
2023-03-03T12:47:30.576Z,22.63
2023-03-03T12:50:10.280Z,32.10
2023-03-03T12:52:55.864Z,20.55
2023-03-03T12:55:42.142Z,22.70
2023-03-03T12:58:48.452Z,21.63
2023-03-03T13:01:40.319Z,20.35
2023-03-03T13:04:37.479Z,20.08
2023-03-03T13:07:13.540Z,22.45
2023-03-03T13:10:15.130Z,21.13
2023-03-03T13:12:57.034Z,19.67
2023-03-03T13:15:55.477Z,21.02
2023-03-03T13:19:06.992Z,22.95
2023-03-03T13:21:59.647Z,21.95
2023-03-03T13:24:51.161Z,22.67
2023-03-03T13:27:23.098Z,21.52
2023-03-03T13:30:00.459Z,21.42
2023-03-03T13:32:54.889Z,22.35
2023-03-03T13:35:42.775Z,22.38
2023-03-03T13:38:14.312Z,22.73
2023-03-03T13:40:50.795Z,23.23
2023-03-03T13:43:24.377Z,23.88
2023-03-03T13:46:09.015Z,23.65
2023-03-03T13:49:07.278Z,24.67
2023-03-03T13:51:34.882Z,23.33
2023-03-03T13:54:03.171Z,24.02
2023-03-03T13:56:37.905Z,24.00
2023-03-03T13:59:13.545Z,24.95
2023-03-03T14:02:00.099Z,28.05
2023-03-03T14:04:54.471Z,26.08
2023-03-03T14:07:42.710Z,24.48
2023-03-03T14:10:25.328Z,24.60
2023-03-03T14:13:04.663Z,24.40
2023-03-03T14:15:36.880Z,25.48
2023-03-03T14:18:19.977Z,25.60
2023-03-03T14:20:51.844Z,28.08
2023-03-03T14:23:28.971Z,25.48
2023-03-03T14:26:09.485Z,25.10
2023-03-03T14:28:44.109Z,24.38
2023-03-03T14:31:22.500Z,24.13
2023-03-03T14:34:01.860Z,24.52
2023-03-03T14:36:33.478Z,26.10
2023-03-03T14:39:01.371Z,25.88
2023-03-03T14:41:39.414Z,28.70
2023-03-03T14:44:45.187Z,25.70
2023-03-03T14:47:23.044Z,23.33
2023-03-03T14:49:51.738Z,24.60
2023-03-03T14:52:23.707Z,24.63
2023-03-03T14:55:05.183Z,25.30
2023-03-03T14:57:35.955Z,26.30
2023-03-03T15:00:12.276Z,26.20
2023-03-03T15:02:44.470Z,25.88
2023-03-03T15:05:25.805Z,25.02
2023-03-03T15:07:55.079Z,23.77
2023-03-03T15:10:35.110Z,26.38
2023-03-03T15:13:21.459Z,25.35
2023-03-03T15:16:18.011Z,28.58
2023-03-03T15:19:30.774Z,26.98
2023-03-03T15:22:34.080Z,25.55
2023-03-03T15:25:13.667Z,28.08
2023-03-03T15:28:06.060Z,25.45
2023-03-03T15:30:58.967Z,27.33
2023-03-03T15:33:43.346Z,26.45
2023-03-03T15:36:38.848Z,24.83
2023-03-03T15:39:32.023Z,25.75
2023-03-03T15:42:35.818Z,25.50
2023-03-03T15:45:03.450Z,25.70
2023-03-03T15:48:25.245Z,27.77
2023-03-03T15:50:52.811Z,29.67
2023-03-03T15:53:30.483Z,31.13
2023-03-03T15:56:07.108Z,29.33
2023-03-03T15:58:52.860Z,35.77
2023-03-03T16:01:41.160Z,33.90
2023-03-03T16:04:15.706Z,31.57
2023-03-03T16:07:07.449Z,32.40
2023-03-03T16:10:12.081Z,31.50
2023-03-03T16:12:51.416Z,33.93
2023-03-03T16:15:50.711Z,36.80
2023-03-03T16:18:47.405Z,36.60
2023-03-03T16:21:20.909Z,35.20
2023-03-03T16:23:56.442Z,33.70
2023-03-03T16:26:42.371Z,37.60
2023-03-03T16:29:45.998Z,33.60
2023-03-03T16:32:45.774Z,36.20
2023-03-03T16:35:38.682Z,36.00
2023-03-03T16:38:21.029Z,38.17
2023-03-03T16:40:59.459Z,37.53
2023-03-03T16:43:54.635Z,37.50
2023-03-03T16:46:42.489Z,37.23
2023-03-03T16:49:13.389Z,39.30
2023-03-03T16:52:04.087Z,37.97
2023-03-03T16:55:02.858Z,39.37
2023-03-03T16:57:47.096Z,39.20
2023-03-03T17:00:22.076Z,39.23
2023-03-03T17:03:03.232Z,38.13
2023-03-03T17:05:39.762Z,36.80
2023-03-03T17:08:39.923Z,37.93
2023-03-03T17:11:10.556Z,40.60
2023-03-03T17:13:50.247Z,38.13
2023-03-03T17:16:51.968Z,37.07
2023-03-03T17:19:28.095Z,39.33
2023-03-03T17:22:26.438Z,38.67
2023-03-03T17:25:09.325Z,37.50
2023-03-03T17:28:06.527Z,39.00
2023-03-03T17:30:58.097Z,34.93
2023-03-03T17:33:40.486Z,36.00
2023-03-03T17:36:45.955Z,37.80
2023-03-03T17:39:28.788Z,37.23
2023-03-03T17:42:17.276Z,40.90
2023-03-03T17:45:12.811Z,39.00
2023-03-03T17:48:00.569Z,39.57
2023-03-03T17:50:48.830Z,38.83
2023-03-03T17:53:29.503Z,40.07
2023-03-03T17:56:20.024Z,39.87
2023-03-03T17:59:19.914Z,38.47
2023-03-03T18:01:59.787Z,40.97
2023-03-03T18:04:45.768Z,39.50
2023-03-03T18:07:46.218Z,39.77
2023-03-03T18:10:32.541Z,43.43
2023-03-03T18:13:34.880Z,41.37
2023-03-03T18:16:11.609Z,43.70
2023-03-03T18:19:04.904Z,46.33
2023-03-03T18:21:53.980Z,43.83
2023-03-03T18:24:58.902Z,45.07
2023-03-03T18:27:40.427Z,42.83
2023-03-03T18:30:33.620Z,46.20
2023-03-03T18:33:10.330Z,44.30
2023-03-03T18:35:43.326Z,44.17
2023-03-03T18:38:20.849Z,43.43
2023-03-03T18:40:59.980Z,52.03
2023-03-03T18:43:47.398Z,47.87
2023-03-03T18:46:22.707Z,49.37
2023-03-03T18:49:08.106Z,46.50
2023-03-03T18:51:38.573Z,50.90
2023-03-03T18:54:12.427Z,51.20
2023-03-03T18:56:45.444Z,48.57
2023-03-03T18:59:34.159Z,49.00
2023-03-03T19:02:26.968Z,48.93
2023-03-03T19:05:08.117Z,52.10
2023-03-03T19:07:51.830Z,52.40
2023-03-03T19:10:29.199Z,54.93
2023-03-03T19:13:55.999Z,51.03
2023-03-03T20:16:30.421Z,70.40
2023-03-03T20:19:28.845Z,68.93
2023-03-03T20:22:19.594Z,68.93
2023-03-03T20:25:06.106Z,73.20
2023-03-03T20:28:01.812Z,76.80
2023-03-03T20:30:42.913Z,70.13
2023-03-03T20:33:48.568Z,75.03
2023-03-03T20:36:58.317Z,76.37
2023-03-03T20:39:41.907Z,74.17
2023-03-03T20:42:42.104Z,83.10
2023-03-03T20:45:27.943Z,81.93
2023-03-03T20:48:11.937Z,82.00
2023-03-03T20:51:31.527Z,77.27
2023-03-03T20:54:33.012Z,83.10
2023-03-03T20:57:11.843Z,82.50
2023-03-03T21:00:00.267Z,81.83
2023-03-03T21:02:40.409Z,82.20
2023-03-03T21:05:13.360Z,88.03
2023-03-03T21:07:55.788Z,87.13
2023-03-03T21:10:27.377Z,87.73
2023-03-03T21:12:57.197Z,86.77
2023-03-03T21:15:34.111Z,86.43
2023-03-03T21:18:26.571Z,89.63
2023-03-03T21:20:54.527Z,90.63
2023-03-03T21:23:23.183Z,96.90
2023-03-03T21:25:56.637Z,91.57
2023-03-03T21:28:33.282Z,92.53
2023-03-03T21:31:04.397Z,90.90
2023-03-03T21:33:43.736Z,90.40
2023-03-03T21:36:14.787Z,87.03
2023-03-03T21:38:43.086Z,93.13
2023-03-03T21:41:11.032Z,94.00
2023-03-03T21:43:44.320Z,87.20
2023-03-03T21:46:12.731Z,101.23
2023-03-03T21:48:41.819Z,98.77
2023-03-03T21:51:10.479Z,95.73
2023-03-03T21:53:42.353Z,95.70
2023-03-03T21:56:11.598Z,96.00
2023-03-03T21:58:42.979Z,94.73
2023-03-03T22:01:11.120Z,93.77
2023-03-03T22:03:46.296Z,96.83
2023-03-03T22:06:14.186Z,94.70
2023-03-03T22:08:41.931Z,88.53
2023-03-03T22:11:09.633Z,93.60
2023-03-03T22:13:39.722Z,95.97
2023-03-03T22:16:08.436Z,94.47
2023-03-03T22:18:36.409Z,94.33
2023-03-03T22:21:05.931Z,92.60
2023-03-03T22:23:33.996Z,91.93
2023-03-03T22:26:02.401Z,94.30
2023-03-03T22:28:30.294Z,98.13
2023-03-03T22:30:58.430Z,97.10
2023-03-03T22:33:26.567Z,96.60
2023-03-03T22:35:54.485Z,97.07
2023-03-03T22:38:25.080Z,95.13
2023-03-03T22:40:55.665Z,96.17
2023-03-03T22:43:23.695Z,98.27
2023-03-03T22:45:51.933Z,95.63
2023-03-03T22:48:19.786Z,94.80
2023-03-03T22:50:47.627Z,90.47
2023-03-03T22:53:15.536Z,93.67
2023-03-03T22:55:43.541Z,96.37
2023-03-03T22:58:14.531Z,96.67
2023-03-03T23:00:42.763Z,97.20
2023-03-03T23:03:11.518Z,93.50
2023-03-03T23:05:39.575Z,101.17
2023-03-03T23:08:10.173Z,92.90
2023-03-03T23:10:38.193Z,93.43
2023-03-03T23:13:06.001Z,93.43
2023-03-03T23:15:34.395Z,94.30
2023-03-03T23:18:02.680Z,96.93
2023-03-03T23:20:33.392Z,94.50
2023-03-03T23:23:01.175Z,99.00
2023-03-03T23:25:28.957Z,95.97
2023-03-03T23:27:57.638Z,101.17
2023-03-03T23:30:25.395Z,94.57
2023-03-03T23:32:53.748Z,93.80
2023-03-03T23:35:22.046Z,97.43
2023-03-03T23:37:49.911Z,103.53
2023-03-03T23:40:17.871Z,104.43
2023-03-03T23:42:46.034Z,99.93
2023-03-03T23:45:14.166Z,100.80
2023-03-03T23:47:42.561Z,109.83
2023-03-03T23:50:12.148Z,107.40
2023-03-03T23:52:39.875Z,103.03
2023-03-03T23:55:11.297Z,106.80
2023-03-03T23:57:41.640Z,106.67
